sensor_id;sensor_type;location;lat;lon;timestamp;P1;durP1;ratioP1;P2;durP2;ratioP2
75680;SDS011;64294;49.176;16.626;2024-01-27T00:01:52;3.72;;;1.45;;
75680;SDS011;64294;49.176;16.626;2024-01-27T00:04:20;3.83;;;1.30;;
75680;SDS011;64294;49.176;16.626;2024-01-27T00:06:45;2.75;;;1.20;;
75680;SDS011;64294;49.176;16.626;2024-01-27T00:09:10;2.85;;;1.10;;
75680;SDS011;64294;49.176;16.626;2024-01-27T00:11:36;1.52;;;1.20;;
75680;SDS011;64294;49.176;16.626;2024-01-27T00:14:01;1.77;;;1.10;;
75680;SDS011;64294;49.176;16.626;2024-01-27T00:16:28;6.38;;;1.30;;
75680;SDS011;64294;49.176;16.626;2024-01-27T00:18:53;5.03;;;1.30;;
75680;SDS011;64294;49.176;16.626;2024-01-27T00:21:20;5.85;;;1.58;;
75680;SDS011;64294;49.176;16.626;2024-01-27T00:23:45;3.72;;;1.40;;
75680;SDS011;64294;49.176;16.626;2024-01-27T00:26:10;3.10;;;1.30;;
75680;SDS011;64294;49.176;16.626;2024-01-27T00:28:36;2.28;;;1.27;;
75680;SDS011;64294;49.176;16.626;2024-01-27T00:31:01;3.90;;;1.20;;
75680;SDS011;64294;49.176;16.626;2024-01-27T00:33:27;4.82;;;1.52;;
75680;SDS011;64294;49.176;16.626;2024-01-27T00:35:52;2.45;;;1.30;;
75680;SDS011;64294;49.176;16.626;2024-01-27T00:38:17;2.60;;;1.20;;
75680;SDS011;64294;49.176;16.626;2024-01-27T00:40:43;3.33;;;1.40;;
75680;SDS011;64294;49.176;16.626;2024-01-27T00:43:08;4.63;;;1.60;;
75680;SDS011;64294;49.176;16.626;2024-01-27T00:45:34;2.30;;;1.30;;
75680;SDS011;64294;49.176;16.626;2024-01-27T00:47:59;6.85;;;1.52;;
75680;SDS011;64294;49.176;16.626;2024-01-27T00:50:25;2.97;;;1.13;;
75680;SDS011;64294;49.176;16.626;2024-01-27T00:52:50;4.63;;;1.45;;
75680;SDS011;64294;49.176;16.626;2024-01-27T00:55:16;2.70;;;1.30;;
75680;SDS011;64294;49.176;16.626;2024-01-27T00:57:42;2.03;;;1.10;;
75680;SDS011;64294;49.176;16.626;2024-01-27T01:00:08;4.57;;;1.23;;
75680;SDS011;64294;49.176;16.626;2024-01-27T01:02:35;2.10;;;1.00;;
75680;SDS011;64294;49.176;16.626;2024-01-27T01:05:01;3.53;;;1.17;;
75680;SDS011;64294;49.176;16.626;2024-01-27T01:07:29;3.58;;;1.20;;
75680;SDS011;64294;49.176;16.626;2024-01-27T01:09:57;4.85;;;1.40;;
75680;SDS011;64294;49.176;16.626;2024-01-27T01:12:23;1.75;;;1.30;;
75680;SDS011;64294;49.176;16.626;2024-01-27T01:14:55;2.58;;;1.20;;
75680;SDS011;64294;49.176;16.626;2024-01-27T01:17:21;2.90;;;1.13;;
75680;SDS011;64294;49.176;16.626;2024-01-27T01:19:47;4.82;;;1.23;;
75680;SDS011;64294;49.176;16.626;2024-01-27T01:22:12;5.20;;;1.20;;
75680;SDS011;64294;49.176;16.626;2024-01-27T01:24:37;5.97;;;1.20;;
75680;SDS011;64294;49.176;16.626;2024-01-27T01:27:03;7.05;;;1.42;;
75680;SDS011;64294;49.176;16.626;2024-01-27T01:29:29;7.78;;;1.83;;
75680;SDS011;64294;49.176;16.626;2024-01-27T01:31:57;6.65;;;1.45;;
75680;SDS011;64294;49.176;16.626;2024-01-27T01:34:23;2.63;;;1.10;;
75680;SDS011;64294;49.176;16.626;2024-01-27T01:36:50;5.65;;;1.50;;
75680;SDS011;64294;49.176;16.626;2024-01-27T01:39:16;6.53;;;1.50;;
75680;SDS011;64294;49.176;16.626;2024-01-27T01:41:42;3.80;;;2.15;;
75680;SDS011;64294;49.176;16.626;2024-01-27T01:44:07;9.05;;;1.50;;
75680;SDS011;64294;49.176;16.626;2024-01-27T01:46:33;9.25;;;1.30;;
75680;SDS011;64294;49.176;16.626;2024-01-27T01:48:59;5.25;;;1.30;;
75680;SDS011;64294;49.176;16.626;2024-01-27T01:51:28;7.38;;;1.80;;
75680;SDS011;64294;49.176;16.626;2024-01-27T01:53:59;7.97;;;1.60;;
75680;SDS011;64294;49.176;16.626;2024-01-27T01:56:25;4.13;;;1.23;;
75680;SDS011;64294;49.176;16.626;2024-01-27T01:58:51;6.22;;;1.60;;
75680;SDS011;64294;49.176;16.626;2024-01-27T02:01:18;8.63;;;1.77;;
75680;SDS011;64294;49.176;16.626;2024-01-27T02:03:55;6.32;;;1.63;;
75680;SDS011;64294;49.176;16.626;2024-01-27T02:06:21;8.88;;;1.80;;
75680;SDS011;64294;49.176;16.626;2024-01-27T02:08:47;6.07;;;1.40;;
75680;SDS011;64294;49.176;16.626;2024-01-27T02:11:13;7.10;;;1.52;;
75680;SDS011;64294;49.176;16.626;2024-01-27T02:13:38;14.20;;;2.05;;
75680;SDS011;64294;49.176;16.626;2024-01-27T02:16:04;8.13;;;1.42;;
75680;SDS011;64294;49.176;16.626;2024-01-27T02:18:30;3.42;;;1.30;;
75680;SDS011;64294;49.176;16.626;2024-01-27T02:20:55;3.08;;;1.33;;
75680;SDS011;64294;49.176;16.626;2024-01-27T02:23:20;5.22;;;1.30;;
75680;SDS011;64294;49.176;16.626;2024-01-27T02:25:46;6.20;;;1.60;;
75680;SDS011;64294;49.176;16.626;2024-01-27T02:28:11;5.30;;;1.50;;
75680;SDS011;64294;49.176;16.626;2024-01-27T02:30:38;6.97;;;1.73;;
75680;SDS011;64294;49.176;16.626;2024-01-27T02:33:04;6.47;;;1.52;;
75680;SDS011;64294;49.176;16.626;2024-01-27T02:35:30;6.75;;;1.60;;
75680;SDS011;64294;49.176;16.626;2024-01-27T02:37:56;5.10;;;1.80;;
75680;SDS011;64294;49.176;16.626;2024-01-27T02:40:21;4.20;;;1.80;;
75680;SDS011;64294;49.176;16.626;2024-01-27T02:42:46;9.45;;;1.83;;
75680;SDS011;64294;49.176;16.626;2024-01-27T02:45:12;3.40;;;1.50;;
75680;SDS011;64294;49.176;16.626;2024-01-27T02:47:38;2.55;;;1.33;;
75680;SDS011;64294;49.176;16.626;2024-01-27T02:50:06;5.45;;;1.80;;
75680;SDS011;64294;49.176;16.626;2024-01-27T02:52:32;4.72;;;1.58;;
75680;SDS011;64294;49.176;16.626;2024-01-27T02:55:01;6.20;;;1.60;;
75680;SDS011;64294;49.176;16.626;2024-01-27T02:57:26;4.10;;;1.60;;
75680;SDS011;64294;49.176;16.626;2024-01-27T02:59:52;3.30;;;1.50;;
75680;SDS011;64294;49.176;16.626;2024-01-27T03:02:20;7.88;;;1.73;;
75680;SDS011;64294;49.176;16.626;2024-01-27T03:04:45;4.72;;;1.50;;
75680;SDS011;64294;49.176;16.626;2024-01-27T03:07:10;3.70;;;1.40;;
75680;SDS011;64294;49.176;16.626;2024-01-27T03:09:36;4.65;;;1.50;;
75680;SDS011;64294;49.176;16.626;2024-01-27T03:12:01;8.57;;;2.25;;
75680;SDS011;64294;49.176;16.626;2024-01-27T03:14:27;4.40;;;1.75;;
75680;SDS011;64294;49.176;16.626;2024-01-27T03:16:52;4.82;;;1.70;;
75680;SDS011;64294;49.176;16.626;2024-01-27T03:19:18;7.13;;;2.15;;
75680;SDS011;64294;49.176;16.626;2024-01-27T03:21:43;4.35;;;1.50;;
75680;SDS011;64294;49.176;16.626;2024-01-27T03:24:08;7.55;;;1.65;;
75680;SDS011;64294;49.176;16.626;2024-01-27T03:26:34;4.07;;;1.42;;
75680;SDS011;64294;49.176;16.626;2024-01-27T03:28:59;4.00;;;1.50;;
75680;SDS011;64294;49.176;16.626;2024-01-27T03:31:31;6.05;;;1.58;;
75680;SDS011;64294;49.176;16.626;2024-01-27T03:34:00;2.60;;;1.30;;
75680;SDS011;64294;49.176;16.626;2024-01-27T03:36:26;3.78;;;1.48;;
75680;SDS011;64294;49.176;16.626;2024-01-27T03:38:52;3.72;;;1.45;;
75680;SDS011;64294;49.176;16.626;2024-01-27T03:41:21;6.00;;;1.40;;
75680;SDS011;64294;49.176;16.626;2024-01-27T03:43:46;5.43;;;1.35;;
75680;SDS011;64294;49.176;16.626;2024-01-27T03:46:12;3.92;;;1.40;;
75680;SDS011;64294;49.176;16.626;2024-01-27T03:48:37;3.90;;;1.40;;
75680;SDS011;64294;49.176;16.626;2024-01-27T03:51:03;3.78;;;1.40;;
75680;SDS011;64294;49.176;16.626;2024-01-27T03:53:29;3.35;;;1.15;;
75680;SDS011;64294;49.176;16.626;2024-01-27T03:55:56;3.65;;;1.70;;
75680;SDS011;64294;49.176;16.626;2024-01-27T03:58:29;4.78;;;1.30;;
75680;SDS011;64294;49.176;16.626;2024-01-27T04:00:55;3.42;;;1.60;;
75680;SDS011;64294;49.176;16.626;2024-01-27T04:03:21;4.05;;;1.40;;
75680;SDS011;64294;49.176;16.626;2024-01-27T04:05:47;5.32;;;1.35;;
75680;SDS011;64294;49.176;16.626;2024-01-27T04:08:12;5.15;;;1.58;;
75680;SDS011;64294;49.176;16.626;2024-01-27T04:10:37;3.03;;;1.30;;
75680;SDS011;64294;49.176;16.626;2024-01-27T04:13:03;3.88;;;1.70;;
75680;SDS011;64294;49.176;16.626;2024-01-27T04:15:29;3.10;;;1.42;;
75680;SDS011;64294;49.176;16.626;2024-01-27T04:17:54;3.60;;;1.50;;
75680;SDS011;64294;49.176;16.626;2024-01-27T04:20:20;3.58;;;1.42;;
75680;SDS011;64294;49.176;16.626;2024-01-27T04:22:47;2.40;;;1.52;;
75680;SDS011;64294;49.176;16.626;2024-01-27T04:25:12;3.70;;;1.52;;
75680;SDS011;64294;49.176;16.626;2024-01-27T04:27:38;5.20;;;1.80;;
75680;SDS011;64294;49.176;16.626;2024-01-27T04:30:07;4.82;;;1.73;;
75680;SDS011;64294;49.176;16.626;2024-01-27T04:32:33;4.47;;;1.52;;
75680;SDS011;64294;49.176;16.626;2024-01-27T04:34:59;3.83;;;1.30;;
75680;SDS011;64294;49.176;16.626;2024-01-27T04:37:25;2.28;;;1.13;;
75680;SDS011;64294;49.176;16.626;2024-01-27T04:39:52;4.53;;;1.35;;
75680;SDS011;64294;49.176;16.626;2024-01-27T04:42:17;2.10;;;1.10;;
75680;SDS011;64294;49.176;16.626;2024-01-27T04:44:43;4.93;;;1.55;;
75680;SDS011;64294;49.176;16.626;2024-01-27T04:47:08;4.82;;;1.23;;
75680;SDS011;64294;49.176;16.626;2024-01-27T04:49:34;6.25;;;1.10;;
75680;SDS011;64294;49.176;16.626;2024-01-27T04:51:59;6.18;;;1.45;;
75680;SDS011;64294;49.176;16.626;2024-01-27T04:54:25;4.72;;;1.17;;
75680;SDS011;64294;49.176;16.626;2024-01-27T04:56:50;4.88;;;1.35;;
75680;SDS011;64294;49.176;16.626;2024-01-27T04:59:16;3.92;;;1.33;;
75680;SDS011;64294;49.176;16.626;2024-01-27T05:01:44;2.90;;;1.40;;
75680;SDS011;64294;49.176;16.626;2024-01-27T05:04:10;3.15;;;1.30;;
75680;SDS011;64294;49.176;16.626;2024-01-27T05:06:38;4.30;;;1.20;;
75680;SDS011;64294;49.176;16.626;2024-01-27T05:09:04;4.10;;;1.20;;
75680;SDS011;64294;49.176;16.626;2024-01-27T05:11:31;4.47;;;1.25;;
75680;SDS011;64294;49.176;16.626;2024-01-27T05:14:00;5.20;;;1.40;;
75680;SDS011;64294;49.176;16.626;2024-01-27T05:16:27;4.07;;;1.20;;
75680;SDS011;64294;49.176;16.626;2024-01-27T05:18:53;3.53;;;1.23;;
75680;SDS011;64294;49.176;16.626;2024-01-27T05:21:18;3.90;;;1.25;;
75680;SDS011;64294;49.176;16.626;2024-01-27T05:23:43;3.35;;;1.23;;
75680;SDS011;64294;49.176;16.626;2024-01-27T05:26:09;2.00;;;1.20;;
75680;SDS011;64294;49.176;16.626;2024-01-27T05:28:36;4.18;;;1.10;;
75680;SDS011;64294;49.176;16.626;2024-01-27T05:31:03;5.22;;;1.10;;
75680;SDS011;64294;49.176;16.626;2024-01-27T05:33:32;4.25;;;1.40;;
75680;SDS011;64294;49.176;16.626;2024-01-27T05:35:57;2.38;;;1.20;;
75680;SDS011;64294;49.176;16.626;2024-01-27T05:38:24;3.50;;;1.25;;
75680;SDS011;64294;49.176;16.626;2024-01-27T05:40:51;4.53;;;1.35;;
75680;SDS011;64294;49.176;16.626;2024-01-27T05:43:16;5.15;;;1.30;;
75680;SDS011;64294;49.176;16.626;2024-01-27T05:45:41;3.63;;;1.50;;
75680;SDS011;64294;49.176;16.626;2024-01-27T05:48:10;4.35;;;1.40;;
75680;SDS011;64294;49.176;16.626;2024-01-27T05:50:36;4.15;;;1.30;;
75680;SDS011;64294;49.176;16.626;2024-01-27T05:53:01;4.43;;;1.42;;
75680;SDS011;64294;49.176;16.626;2024-01-27T05:55:27;5.22;;;1.67;;
75680;SDS011;64294;49.176;16.626;2024-01-27T05:57:53;3.75;;;1.20;;
75680;SDS011;64294;49.176;16.626;2024-01-27T06:00:22;4.10;;;1.20;;
75680;SDS011;64294;49.176;16.626;2024-01-27T06:02:47;4.18;;;1.33;;
75680;SDS011;64294;49.176;16.626;2024-01-27T06:05:18;6.13;;;1.27;;
75680;SDS011;64294;49.176;16.626;2024-01-27T06:07:44;4.43;;;1.30;;
75680;SDS011;64294;49.176;16.626;2024-01-27T06:10:11;3.75;;;1.55;;
75680;SDS011;64294;49.176;16.626;2024-01-27T06:12:37;5.75;;;1.48;;
75680;SDS011;64294;49.176;16.626;2024-01-27T06:15:04;7.00;;;1.45;;
75680;SDS011;64294;49.176;16.626;2024-01-27T06:17:31;4.78;;;1.80;;
75680;SDS011;64294;49.176;16.626;2024-01-27T06:19:56;3.70;;;1.20;;
75680;SDS011;64294;49.176;16.626;2024-01-27T06:22:21;1.92;;;1.30;;
75680;SDS011;64294;49.176;16.626;2024-01-27T06:24:47;4.22;;;1.25;;
75680;SDS011;64294;49.176;16.626;2024-01-27T06:27:12;4.13;;;1.42;;
75680;SDS011;64294;49.176;16.626;2024-01-27T06:29:41;4.15;;;1.55;;
75680;SDS011;64294;49.176;16.626;2024-01-27T06:32:07;4.07;;;1.25;;
75680;SDS011;64294;49.176;16.626;2024-01-27T06:34:32;3.22;;;1.20;;
75680;SDS011;64294;49.176;16.626;2024-01-27T06:36:59;5.18;;;1.60;;
75680;SDS011;64294;49.176;16.626;2024-01-27T06:39:24;7.13;;;1.42;;
75680;SDS011;64294;49.176;16.626;2024-01-27T06:41:49;4.82;;;1.30;;
75680;SDS011;64294;49.176;16.626;2024-01-27T06:44:15;3.40;;;1.15;;
75680;SDS011;64294;49.176;16.626;2024-01-27T06:46:40;4.85;;;1.58;;
75680;SDS011;64294;49.176;16.626;2024-01-27T06:49:05;7.57;;;1.60;;
75680;SDS011;64294;49.176;16.626;2024-01-27T06:51:31;6.38;;;1.40;;
75680;SDS011;64294;49.176;16.626;2024-01-27T06:53:59;5.05;;;1.55;;
75680;SDS011;64294;49.176;16.626;2024-01-27T06:56:24;6.43;;;2.17;;
75680;SDS011;64294;49.176;16.626;2024-01-27T06:58:50;8.45;;;2.20;;
75680;SDS011;64294;49.176;16.626;2024-01-27T07:01:15;2.85;;;1.20;;
75680;SDS011;64294;49.176;16.626;2024-01-27T07:03:40;6.90;;;1.65;;
75680;SDS011;64294;49.176;16.626;2024-01-27T07:06:06;4.75;;;1.40;;
75680;SDS011;64294;49.176;16.626;2024-01-27T07:08:32;5.75;;;1.42;;
75680;SDS011;64294;49.176;16.626;2024-01-27T07:10:57;5.93;;;1.30;;
75680;SDS011;64294;49.176;16.626;2024-01-27T07:13:23;3.97;;;1.20;;
75680;SDS011;64294;49.176;16.626;2024-01-27T07:15:48;8.60;;;1.55;;
75680;SDS011;64294;49.176;16.626;2024-01-27T07:18:15;8.38;;;1.80;;
75680;SDS011;64294;49.176;16.626;2024-01-27T07:20:45;7.18;;;1.60;;
75680;SDS011;64294;49.176;16.626;2024-01-27T07:23:10;5.80;;;1.60;;
75680;SDS011;64294;49.176;16.626;2024-01-27T07:25:36;8.50;;;1.30;;
75680;SDS011;64294;49.176;16.626;2024-01-27T07:28:01;6.53;;;1.50;;
75680;SDS011;64294;49.176;16.626;2024-01-27T07:30:27;11.88;;;1.83;;
75680;SDS011;64294;49.176;16.626;2024-01-27T07:32:54;10.40;;;1.60;;
75680;SDS011;64294;49.176;16.626;2024-01-27T07:35:19;5.75;;;1.55;;
75680;SDS011;64294;49.176;16.626;2024-01-27T07:37:45;8.85;;;1.70;;
75680;SDS011;64294;49.176;16.626;2024-01-27T07:40:10;6.45;;;2.15;;
75680;SDS011;64294;49.176;16.626;2024-01-27T07:42:36;8.45;;;1.60;;
75680;SDS011;64294;49.176;16.626;2024-01-27T07:45:02;9.65;;;2.13;;
75680;SDS011;64294;49.176;16.626;2024-01-27T07:47:27;7.03;;;1.30;;
75680;SDS011;64294;49.176;16.626;2024-01-27T07:49:52;8.75;;;1.63;;
75680;SDS011;64294;49.176;16.626;2024-01-27T07:52:18;6.63;;;1.30;;
75680;SDS011;64294;49.176;16.626;2024-01-27T07:54:44;7.00;;;2.35;;
75680;SDS011;64294;49.176;16.626;2024-01-27T07:57:13;6.97;;;1.90;;
75680;SDS011;64294;49.176;16.626;2024-01-27T07:59:38;7.20;;;1.70;;
75680;SDS011;64294;49.176;16.626;2024-01-27T08:02:04;6.30;;;1.80;;
75680;SDS011;64294;49.176;16.626;2024-01-27T08:04:30;7.93;;;1.63;;
75680;SDS011;64294;49.176;16.626;2024-01-27T08:06:56;10.32;;;1.90;;
75680;SDS011;64294;49.176;16.626;2024-01-27T08:09:22;3.92;;;1.38;;
75680;SDS011;64294;49.176;16.626;2024-01-27T08:11:48;9.85;;;1.65;;
75680;SDS011;64294;49.176;16.626;2024-01-27T08:14:17;6.07;;;1.92;;
75680;SDS011;64294;49.176;16.626;2024-01-27T08:16:44;8.32;;;1.63;;
75680;SDS011;64294;49.176;16.626;2024-01-27T08:19:09;6.07;;;1.38;;
75680;SDS011;64294;49.176;16.626;2024-01-27T08:21:34;3.80;;;1.67;;
75680;SDS011;64294;49.176;16.626;2024-01-27T08:24:01;7.70;;;1.70;;
75680;SDS011;64294;49.176;16.626;2024-01-27T08:26:26;8.30;;;1.90;;
75680;SDS011;64294;49.176;16.626;2024-01-27T08:28:54;5.10;;;1.60;;
75680;SDS011;64294;49.176;16.626;2024-01-27T08:31:23;6.85;;;1.75;;
75680;SDS011;64294;49.176;16.626;2024-01-27T08:33:49;4.53;;;1.60;;
75680;SDS011;64294;49.176;16.626;2024-01-27T08:36:14;9.45;;;1.95;;
75680;SDS011;64294;49.176;16.626;2024-01-27T08:38:40;6.78;;;1.60;;
75680;SDS011;64294;49.176;16.626;2024-01-27T08:41:05;6.97;;;1.75;;
75680;SDS011;64294;49.176;16.626;2024-01-27T08:43:31;6.63;;;1.60;;
75680;SDS011;64294;49.176;16.626;2024-01-27T08:45:56;8.90;;;1.50;;
75680;SDS011;64294;49.176;16.626;2024-01-27T08:48:25;7.30;;;1.77;;
75680;SDS011;64294;49.176;16.626;2024-01-27T08:50:50;9.32;;;1.60;;
75680;SDS011;64294;49.176;16.626;2024-01-27T08:53:16;7.75;;;1.60;;
75680;SDS011;64294;49.176;16.626;2024-01-27T08:55:41;3.55;;;1.30;;
75680;SDS011;64294;49.176;16.626;2024-01-27T08:58:06;6.38;;;1.55;;
75680;SDS011;64294;49.176;16.626;2024-01-27T09:00:32;5.15;;;1.58;;
75680;SDS011;64294;49.176;16.626;2024-01-27T09:02:57;5.97;;;1.60;;
75680;SDS011;64294;49.176;16.626;2024-01-27T09:05:23;8.57;;;1.80;;
75680;SDS011;64294;49.176;16.626;2024-01-27T09:07:48;4.18;;;1.63;;
75680;SDS011;64294;49.176;16.626;2024-01-27T09:10:13;8.48;;;1.65;;
75680;SDS011;64294;49.176;16.626;2024-01-27T09:12:40;5.20;;;1.90;;
75680;SDS011;64294;49.176;16.626;2024-01-27T09:15:06;4.72;;;1.40;;
75680;SDS011;64294;49.176;16.626;2024-01-27T09:17:32;5.50;;;1.60;;
75680;SDS011;64294;49.176;16.626;2024-01-27T09:19:58;6.53;;;2.08;;
75680;SDS011;64294;49.176;16.626;2024-01-27T09:22:23;5.78;;;1.65;;
75680;SDS011;64294;49.176;16.626;2024-01-27T09:24:48;4.97;;;1.40;;
75680;SDS011;64294;49.176;16.626;2024-01-27T09:27:14;6.68;;;1.45;;
75680;SDS011;64294;49.176;16.626;2024-01-27T09:29:39;7.57;;;2.20;;
75680;SDS011;64294;49.176;16.626;2024-01-27T09:32:04;4.97;;;1.50;;
75680;SDS011;64294;49.176;16.626;2024-01-27T09:34:30;3.72;;;1.55;;
75680;SDS011;64294;49.176;16.626;2024-01-27T09:36:55;6.47;;;1.50;;
75680;SDS011;64294;49.176;16.626;2024-01-27T09:39:21;5.65;;;1.83;;
75680;SDS011;64294;49.176;16.626;2024-01-27T09:41:46;8.43;;;1.90;;
75680;SDS011;64294;49.176;16.626;2024-01-27T09:44:13;3.75;;;1.45;;
75680;SDS011;64294;49.176;16.626;2024-01-27T09:46:43;6.45;;;1.58;;
75680;SDS011;64294;49.176;16.626;2024-01-27T09:49:10;8.55;;;2.03;;
75680;SDS011;64294;49.176;16.626;2024-01-27T09:51:38;6.70;;;1.77;;
75680;SDS011;64294;49.176;16.626;2024-01-27T09:54:06;5.35;;;1.50;;
75680;SDS011;64294;49.176;16.626;2024-01-27T09:56:32;8.38;;;1.70;;
75680;SDS011;64294;49.176;16.626;2024-01-27T09:58:58;7.90;;;1.58;;
75680;SDS011;64294;49.176;16.626;2024-01-27T10:01:24;8.15;;;1.77;;
75680;SDS011;64294;49.176;16.626;2024-01-27T10:03:50;7.78;;;2.08;;
75680;SDS011;64294;49.176;16.626;2024-01-27T10:06:18;6.03;;;1.85;;
75680;SDS011;64294;49.176;16.626;2024-01-27T10:08:48;7.10;;;1.73;;
75680;SDS011;64294;49.176;16.626;2024-01-27T10:11:18;9.35;;;1.98;;
75680;SDS011;64294;49.176;16.626;2024-01-27T10:13:45;9.77;;;1.67;;
75680;SDS011;64294;49.176;16.626;2024-01-27T10:16:19;4.95;;;1.50;;
75680;SDS011;64294;49.176;16.626;2024-01-27T10:18:45;8.25;;;1.88;;
75680;SDS011;64294;49.176;16.626;2024-01-27T10:21:17;7.30;;;1.95;;
75680;SDS011;64294;49.176;16.626;2024-01-27T10:23:46;5.55;;;1.70;;
75680;SDS011;64294;49.176;16.626;2024-01-27T10:26:11;9.75;;;1.98;;
75680;SDS011;64294;49.176;16.626;2024-01-27T10:28:37;6.45;;;1.70;;
75680;SDS011;64294;49.176;16.626;2024-01-27T10:31:10;5.97;;;1.65;;
75680;SDS011;64294;49.176;16.626;2024-01-27T10:33:36;5.82;;;1.70;;
75680;SDS011;64294;49.176;16.626;2024-01-27T10:36:04;7.25;;;1.77;;
75680;SDS011;64294;49.176;16.626;2024-01-27T10:38:36;5.10;;;2.08;;
75680;SDS011;64294;49.176;16.626;2024-01-27T10:41:03;9.57;;;2.30;;
75680;SDS011;64294;49.176;16.626;2024-01-27T10:43:37;7.60;;;1.80;;
75680;SDS011;64294;49.176;16.626;2024-01-27T10:46:03;7.45;;;1.90;;
75680;SDS011;64294;49.176;16.626;2024-01-27T10:48:31;6.40;;;2.20;;
75680;SDS011;64294;49.176;16.626;2024-01-27T10:50:59;10.85;;;1.88;;
75680;SDS011;64294;49.176;16.626;2024-01-27T10:53:28;5.07;;;1.80;;
75680;SDS011;64294;49.176;16.626;2024-01-27T10:55:58;7.72;;;1.80;;
75680;SDS011;64294;49.176;16.626;2024-01-27T10:58:29;7.60;;;2.22;;
75680;SDS011;64294;49.176;16.626;2024-01-27T11:00:55;8.77;;;1.80;;
75680;SDS011;64294;49.176;16.626;2024-01-27T11:03:21;13.52;;;3.10;;
75680;SDS011;64294;49.176;16.626;2024-01-27T11:05:49;9.32;;;2.70;;
75680;SDS011;64294;49.176;16.626;2024-01-27T11:08:16;10.07;;;2.33;;
75680;SDS011;64294;49.176;16.626;2024-01-27T11:10:52;9.15;;;2.05;;
75680;SDS011;64294;49.176;16.626;2024-01-27T11:13:19;6.15;;;1.83;;
75680;SDS011;64294;49.176;16.626;2024-01-27T11:15:55;6.90;;;1.80;;
75680;SDS011;64294;49.176;16.626;2024-01-27T11:18:21;7.80;;;1.92;;
75680;SDS011;64294;49.176;16.626;2024-01-27T11:20:47;8.43;;;1.80;;
75680;SDS011;64294;49.176;16.626;2024-01-27T11:23:13;7.05;;;1.98;;
75680;SDS011;64294;49.176;16.626;2024-01-27T11:25:41;10.00;;;2.15;;
75680;SDS011;64294;49.176;16.626;2024-01-27T11:28:15;7.32;;;1.85;;
75680;SDS011;64294;49.176;16.626;2024-01-27T11:30:44;6.60;;;1.92;;
75680;SDS011;64294;49.176;16.626;2024-01-27T11:33:11;5.82;;;2.00;;
75680;SDS011;64294;49.176;16.626;2024-01-27T11:35:37;4.85;;;1.67;;
75680;SDS011;64294;49.176;16.626;2024-01-27T11:38:03;8.27;;;2.17;;
75680;SDS011;64294;49.176;16.626;2024-01-27T11:40:30;7.03;;;1.90;;
75680;SDS011;64294;49.176;16.626;2024-01-27T11:42:57;11.10;;;2.42;;
75680;SDS011;64294;49.176;16.626;2024-01-27T11:45:23;4.88;;;1.75;;
75680;SDS011;64294;49.176;16.626;2024-01-27T11:47:49;8.70;;;1.92;;
75680;SDS011;64294;49.176;16.626;2024-01-27T11:50:18;6.68;;;2.03;;
75680;SDS011;64294;49.176;16.626;2024-01-27T11:52:45;12.15;;;1.65;;
75680;SDS011;64294;49.176;16.626;2024-01-27T11:55:11;6.90;;;1.88;;
75680;SDS011;64294;49.176;16.626;2024-01-27T11:57:37;8.45;;;1.92;;
75680;SDS011;64294;49.176;16.626;2024-01-27T12:00:03;5.63;;;1.92;;
75680;SDS011;64294;49.176;16.626;2024-01-27T12:02:29;9.98;;;2.10;;
75680;SDS011;64294;49.176;16.626;2024-01-27T12:04:54;10.00;;;1.83;;
75680;SDS011;64294;49.176;16.626;2024-01-27T12:07:23;7.50;;;2.08;;
75680;SDS011;64294;49.176;16.626;2024-01-27T12:09:49;6.05;;;1.83;;
75680;SDS011;64294;49.176;16.626;2024-01-27T12:12:15;7.28;;;1.70;;
75680;SDS011;64294;49.176;16.626;2024-01-27T12:14:42;6.85;;;1.95;;
75680;SDS011;64294;49.176;16.626;2024-01-27T12:17:10;6.88;;;1.92;;
75680;SDS011;64294;49.176;16.626;2024-01-27T12:19:37;5.18;;;2.03;;
75680;SDS011;64294;49.176;16.626;2024-01-27T12:22:03;8.10;;;2.10;;
75680;SDS011;64294;49.176;16.626;2024-01-27T12:24:29;6.72;;;2.00;;
75680;SDS011;64294;49.176;16.626;2024-01-27T12:26:57;7.55;;;1.73;;
75680;SDS011;64294;49.176;16.626;2024-01-27T12:29:22;4.68;;;1.70;;
75680;SDS011;64294;49.176;16.626;2024-01-27T12:31:48;7.50;;;1.95;;
75680;SDS011;64294;49.176;16.626;2024-01-27T12:34:15;3.83;;;1.77;;
75680;SDS011;64294;49.176;16.626;2024-01-27T12:36:41;8.27;;;1.92;;
75680;SDS011;64294;49.176;16.626;2024-01-27T12:39:07;4.90;;;1.80;;
75680;SDS011;64294;49.176;16.626;2024-01-27T12:41:33;6.15;;;1.80;;
75680;SDS011;64294;49.176;16.626;2024-01-27T12:43:59;6.72;;;1.80;;
75680;SDS011;64294;49.176;16.626;2024-01-27T12:46:25;6.22;;;1.80;;
75680;SDS011;64294;49.176;16.626;2024-01-27T12:48:50;7.88;;;2.40;;
75680;SDS011;64294;49.176;16.626;2024-01-27T12:51:19;7.00;;;2.22;;
75680;SDS011;64294;49.176;16.626;2024-01-27T12:53:45;7.78;;;2.15;;
75680;SDS011;64294;49.176;16.626;2024-01-27T12:56:11;6.47;;;1.83;;
75680;SDS011;64294;49.176;16.626;2024-01-27T12:58:40;8.30;;;1.88;;
75680;SDS011;64294;49.176;16.626;2024-01-27T13:01:09;6.93;;;1.90;;
75680;SDS011;64294;49.176;16.626;2024-01-27T13:03:34;7.65;;;1.88;;
75680;SDS011;64294;49.176;16.626;2024-01-27T13:06:00;8.63;;;1.80;;
75680;SDS011;64294;49.176;16.626;2024-01-27T13:08:26;7.80;;;1.70;;
75680;SDS011;64294;49.176;16.626;2024-01-27T13:10:52;8.98;;;2.35;;
75680;SDS011;64294;49.176;16.626;2024-01-27T13:13:18;13.60;;;2.45;;
75680;SDS011;64294;49.176;16.626;2024-01-27T13:15:44;5.00;;;1.52;;
75680;SDS011;64294;49.176;16.626;2024-01-27T13:18:09;6.63;;;2.00;;
75680;SDS011;64294;49.176;16.626;2024-01-27T13:20:36;8.40;;;1.95;;
75680;SDS011;64294;49.176;16.626;2024-01-27T13:23:05;10.18;;;2.03;;
75680;SDS011;64294;49.176;16.626;2024-01-27T13:25:31;9.88;;;2.45;;
75680;SDS011;64294;49.176;16.626;2024-01-27T13:27:57;5.70;;;1.70;;
75680;SDS011;64294;49.176;16.626;2024-01-27T13:30:22;9.07;;;1.92;;
75680;SDS011;64294;49.176;16.626;2024-01-27T13:32:48;9.35;;;2.10;;
75680;SDS011;64294;49.176;16.626;2024-01-27T13:35:14;9.77;;;2.33;;
75680;SDS011;64294;49.176;16.626;2024-01-27T13:37:39;9.05;;;2.55;;
75680;SDS011;64294;49.176;16.626;2024-01-27T13:40:06;5.95;;;2.00;;
75680;SDS011;64294;49.176;16.626;2024-01-27T13:42:33;5.82;;;1.90;;
75680;SDS011;64294;49.176;16.626;2024-01-27T13:44:59;9.35;;;1.98;;
75680;SDS011;64294;49.176;16.626;2024-01-27T13:47:25;6.47;;;2.05;;
75680;SDS011;64294;49.176;16.626;2024-01-27T13:49:50;7.30;;;2.10;;
75680;SDS011;64294;49.176;16.626;2024-01-27T13:52:16;8.38;;;2.05;;
75680;SDS011;64294;49.176;16.626;2024-01-27T13:54:45;11.95;;;1.90;;
75680;SDS011;64294;49.176;16.626;2024-01-27T13:57:10;11.98;;;2.17;;
75680;SDS011;64294;49.176;16.626;2024-01-27T13:59:36;9.00;;;2.20;;
75680;SDS011;64294;49.176;16.626;2024-01-27T14:02:01;6.95;;;2.10;;
75680;SDS011;64294;49.176;16.626;2024-01-27T14:04:27;11.43;;;2.25;;
75680;SDS011;64294;49.176;16.626;2024-01-27T14:06:56;13.15;;;2.53;;
75680;SDS011;64294;49.176;16.626;2024-01-27T14:09:24;5.75;;;2.00;;
75680;SDS011;64294;49.176;16.626;2024-01-27T14:11:52;8.75;;;2.13;;
75680;SDS011;64294;49.176;16.626;2024-01-27T14:14:17;9.30;;;2.50;;
75680;SDS011;64294;49.176;16.626;2024-01-27T14:16:46;8.52;;;2.63;;
75680;SDS011;64294;49.176;16.626;2024-01-27T14:19:12;5.50;;;2.08;;
75680;SDS011;64294;49.176;16.626;2024-01-27T14:21:37;8.50;;;2.55;;
75680;SDS011;64294;49.176;16.626;2024-01-27T14:24:03;8.25;;;2.30;;
75680;SDS011;64294;49.176;16.626;2024-01-27T14:26:31;8.88;;;2.20;;
75680;SDS011;64294;49.176;16.626;2024-01-27T14:28:59;7.75;;;2.00;;